createdAt,value
2019-01-15T00:00:35.355Z,21.58
2019-01-15T00:01:44.541Z,21.49
2019-01-15T00:02:53.534Z,21.54
2019-01-15T00:04:02.978Z,21.54
2019-01-15T00:05:12.429Z,21.44
2019-01-15T00:06:21.891Z,21.47
2019-01-15T00:07:31.316Z,21.5
2019-01-15T00:08:40.257Z,21.49
2019-01-15T00:09:49.685Z,21.37
2019-01-15T00:10:59.145Z,21.43
2019-01-15T00:12:12.503Z,21.38
2019-01-15T00:13:21.950Z,21.4
2019-01-15T00:14:31.415Z,21.47
2019-01-15T00:15:40.944Z,21.43
2019-01-15T00:16:50.124Z,21.42
2019-01-15T00:17:59.812Z,21.38
2019-01-15T00:19:09.259Z,21.38
2019-01-15T00:20:18.434Z,21.4
2019-01-15T00:21:28.118Z,21.37
2019-01-15T00:22:37.320Z,21.37
2019-01-15T00:23:46.240Z,21.34
2019-01-15T00:24:55.434Z,21.32
2019-01-15T00:26:04.862Z,21.32
2019-01-15T00:27:14.302Z,21.29
2019-01-15T00:28:23.721Z,21.27
2019-01-15T00:29:32.422Z,21.31
2019-01-15T00:30:41.881Z,21.29
2019-01-15T00:31:51.800Z,21.28
2019-01-15T00:33:01.229Z,21.28
2019-01-15T00:34:10.441Z,21.29
2019-01-15T00:35:19.388Z,21.25
2019-01-15T00:36:29.079Z,21.24
2019-01-15T00:37:38.013Z,21.21
2019-01-15T00:38:47.484Z,21.27
2019-01-15T00:39:56.649Z,21.22
2019-01-15T00:41:05.859Z,21.14
2019-01-15T00:42:20.048Z,21.17
2019-01-15T00:43:29.613Z,21.14
2019-01-15T00:44:38.789Z,21.14
2019-01-15T00:45:48.464Z,21.13
2019-01-15T00:46:58.164Z,21.1
2019-01-15T00:48:07.368Z,21.14
2019-01-15T00:49:17.070Z,21.14
2019-01-15T00:50:26.005Z,21.17
2019-01-15T00:51:35.676Z,21.21
2019-01-15T00:52:44.638Z,21.09
2019-01-15T00:53:53.869Z,21.03
2019-01-15T00:55:02.797Z,21.07
2019-01-15T00:56:11.748Z,21.04
2019-01-15T00:57:20.694Z,21.07
2019-01-15T00:58:29.889Z,21.12
2019-01-15T00:59:38.811Z,21.06
2019-01-15T01:00:47.518Z,21.03
2019-01-15T01:01:56.948Z,21.03
2019-01-15T01:03:06.158Z,21.06
2019-01-15T01:04:15.333Z,21.04
2019-01-15T01:05:24.537Z,20.97
2019-01-15T01:06:34.289Z,20.97
2019-01-15T01:07:43.492Z,20.97
2019-01-15T01:08:52.673Z,20.94
2019-01-15T01:10:02.474Z,20.94
2019-01-15T01:11:11.472Z,20.98
2019-01-15T01:12:26.776Z,20.94
2019-01-15T01:13:35.949Z,20.95
2019-01-15T01:14:45.146Z,20.97
2019-01-15T01:15:54.839Z,20.95
2019-01-15T01:17:04.265Z,20.94
2019-01-15T01:18:13.702Z,20.98
2019-01-15T01:19:22.932Z,20.91
2019-01-15T01:20:31.907Z,20.91
2019-01-15T01:21:42.200Z,20.89
2019-01-15T01:22:51.660Z,20.82
2019-01-15T01:24:01.106Z,20.95
2019-01-15T01:25:10.319Z,20.82
2019-01-15T01:26:19.808Z,20.85
2019-01-15T01:27:29.478Z,20.84
2019-01-15T01:28:38.647Z,20.88
2019-01-15T01:29:47.615Z,20.82
2019-01-15T01:30:57.065Z,20.8
2019-01-15T01:32:06.236Z,20.91
2019-01-15T01:33:15.685Z,20.77
2019-01-15T01:34:25.434Z,20.82
2019-01-15T01:35:34.357Z,20.77
2019-01-15T01:36:43.289Z,20.82
2019-01-15T01:37:52.729Z,20.74
2019-01-15T01:39:01.922Z,20.76
2019-01-15T01:40:11.105Z,20.79
2019-01-15T01:41:20.549Z,20.84
2019-01-15T01:42:34.314Z,20.79
2019-01-15T01:43:43.254Z,20.82
2019-01-15T01:44:52.684Z,20.74
2019-01-15T01:46:02.141Z,20.79
2019-01-15T01:47:11.560Z,20.74
2019-01-15T01:48:20.494Z,20.77
2019-01-15T01:49:29.921Z,20.72
2019-01-15T01:50:39.103Z,20.7
2019-01-15T01:51:48.307Z,20.76
2019-01-15T01:52:57.502Z,20.67
2019-01-15T01:54:06.932Z,20.64
2019-01-15T01:55:16.386Z,20.72
2019-01-15T01:56:26.157Z,20.72
2019-01-15T01:57:35.854Z,20.66
2019-01-15T01:58:45.296Z,20.66
2019-01-15T01:59:55.242Z,20.73
2019-01-15T02:01:04.477Z,20.7
2019-01-15T02:02:13.668Z,20.69
2019-01-15T02:03:22.851Z,20.69
2019-01-15T02:04:31.787Z,20.69
2019-01-15T02:05:41.277Z,20.76
2019-01-15T02:06:50.745Z,20.69
2019-01-15T02:08:00.176Z,20.7
2019-01-15T02:09:09.110Z,20.7
2019-01-15T02:10:18.549Z,20.67
2019-01-15T02:11:27.486Z,20.66
2019-01-15T02:12:41.507Z,20.7
2019-01-15T02:13:51.229Z,20.64
2019-01-15T02:15:00.184Z,20.69
2019-01-15T02:16:09.644Z,20.59
2019-01-15T02:17:19.332Z,20.66
2019-01-15T02:18:28.511Z,20.7
2019-01-15T02:19:37.962Z,20.62
2019-01-15T02:20:47.645Z,20.64
2019-01-15T02:21:56.607Z,20.69
2019-01-15T02:23:05.590Z,20.61
2019-01-15T02:24:14.771Z,20.61
2019-01-15T02:25:24.197Z,20.62
2019-01-15T02:26:33.125Z,20.57
2019-01-15T02:27:43.068Z,20.61
2019-01-15T02:28:52.296Z,20.55
2019-01-15T02:30:01.255Z,20.55
2019-01-15T02:31:10.714Z,20.61
2019-01-15T02:32:19.905Z,20.54
2019-01-15T02:33:29.587Z,20.58
2019-01-15T02:34:39.039Z,20.57
2019-01-15T02:35:48.252Z,20.55
2019-01-15T02:36:57.930Z,20.57
2019-01-15T02:38:07.120Z,20.41
2019-01-15T02:39:16.368Z,20.5
2019-01-15T02:40:26.053Z,20.55
2019-01-15T02:41:35.256Z,20.48
2019-01-15T02:42:50.938Z,20.5
2019-01-15T02:44:00.883Z,20.54
2019-01-15T02:45:10.573Z,20.42
2019-01-15T02:46:20.023Z,20.52
2019-01-15T02:47:29.714Z,20.54
2019-01-15T02:48:39.418Z,20.51
2019-01-15T02:49:48.337Z,20.42
2019-01-15T02:50:58.018Z,20.47
2019-01-15T02:52:07.748Z,20.42
2019-01-15T02:53:17.209Z,20.42
2019-01-15T02:54:26.426Z,20.55
2019-01-15T02:55:35.616Z,20.51
2019-01-15T02:56:44.394Z,20.52
2019-01-15T02:57:53.353Z,20.47
2019-01-15T02:59:03.291Z,20.41
2019-01-15T03:00:12.983Z,20.42
2019-01-15T03:01:22.407Z,20.35
2019-01-15T03:02:31.674Z,20.42
2019-01-15T03:03:40.925Z,20.38
2019-01-15T03:04:50.348Z,20.47
2019-01-15T03:05:59.042Z,20.38
2019-01-15T03:07:09.035Z,20.36
2019-01-15T03:08:18.214Z,20.39
2019-01-15T03:09:27.402Z,20.41
2019-01-15T03:10:36.582Z,20.36
2019-01-15T03:11:46.042Z,20.38
2019-01-15T03:13:00.595Z,20.42
2019-01-15T03:14:10.090Z,20.39
2019-01-15T03:15:19.536Z,20.39
2019-01-15T03:16:28.739Z,20.39
2019-01-15T03:17:38.170Z,20.33
2019-01-15T03:18:48.107Z,20.36
2019-01-15T03:19:57.315Z,20.35
2019-01-15T03:21:07.268Z,20.38
2019-01-15T03:22:17.206Z,20.39
2019-01-15T03:23:27.040Z,20.39
2019-01-15T03:24:36.489Z,20.29
2019-01-15T03:25:45.911Z,20.32
2019-01-15T03:26:55.360Z,20.31
2019-01-15T03:28:04.798Z,20.29
2019-01-15T03:29:14.679Z,20.33
2019-01-15T03:30:24.527Z,20.32
2019-01-15T03:31:34.542Z,20.28
2019-01-15T03:32:44.040Z,20.21
2019-01-15T03:33:53.535Z,20.35
2019-01-15T03:35:03.220Z,20.17
2019-01-15T03:36:12.670Z,20.24
2019-01-15T03:37:22.358Z,20.18
2019-01-15T03:38:31.551Z,20.16
2019-01-15T03:39:41.001Z,20.18
2019-01-15T03:40:50.498Z,20.23
2019-01-15T03:41:59.943Z,20.14
2019-01-15T03:43:09.400Z,20.13
2019-01-15T03:44:18.368Z,20.2
2019-01-15T03:45:28.107Z,20.13
2019-01-15T03:46:38.089Z,20.18
2019-01-15T03:47:47.536Z,20.18
2019-01-15T03:48:56.747Z,20.2
2019-01-15T03:50:06.184Z,20.17
2019-01-15T03:51:16.127Z,20.21
2019-01-15T03:52:25.073Z,20.21
2019-01-15T03:53:34.252Z,20.24
2019-01-15T03:54:43.235Z,20.21
2019-01-15T03:55:52.678Z,20.18
2019-01-15T03:57:02.395Z,20.16
2019-01-15T03:58:11.854Z,20.18
2019-01-15T03:59:21.282Z,20.18
2019-01-15T04:00:30.521Z,20.21
2019-01-15T04:01:40.212Z,20.17
2019-01-15T04:02:49.916Z,20.17
2019-01-15T04:03:59.343Z,20.11
2019-01-15T04:05:08.778Z,20.08
2019-01-15T04:06:17.971Z,20.17
2019-01-15T04:07:27.187Z,20.14
2019-01-15T04:08:36.643Z,20.18
2019-01-15T04:09:46.132Z,20.14
2019-01-15T04:10:55.578Z,20.2
2019-01-15T04:12:04.798Z,20.13
2019-01-15T04:13:16.110Z,20.18
2019-01-15T04:14:27.015Z,20.06
2019-01-15T04:15:36.446Z,20.13
2019-01-15T04:16:45.413Z,20.17
2019-01-15T04:17:54.860Z,20.13
2019-01-15T04:19:04.065Z,20.08
2019-01-15T04:20:13.527Z,20.06
2019-01-15T04:21:23.468Z,20.13
2019-01-15T04:22:32.653Z,20.08
2019-01-15T04:23:41.977Z,20.06
2019-01-15T04:24:51.406Z,20.1
2019-01-15T04:26:00.857Z,20.1
2019-01-15T04:27:10.041Z,20.14
2019-01-15T04:28:19.556Z,20.06
2019-01-15T04:29:29.245Z,20.1
2019-01-15T04:30:39.230Z,20.08
2019-01-15T04:31:48.169Z,20.1
2019-01-15T04:32:57.351Z,20.08
2019-01-15T04:34:06.526Z,20.11
2019-01-15T04:35:15.474Z,20.05
2019-01-15T04:36:24.979Z,20.1
2019-01-15T04:37:34.466Z,20.11
2019-01-15T04:38:44.420Z,20.16
2019-01-15T04:39:53.610Z,20.08
2019-01-15T04:41:03.133Z,20.08
2019-01-15T04:42:11.848Z,20.13
2019-01-15T04:43:24.858Z,20.13
2019-01-15T04:44:34.073Z,20.08
2019-01-15T04:45:43.277Z,20.1
2019-01-15T04:46:52.475Z,20.11
2019-01-15T04:48:01.422Z,19.99
2019-01-15T04:49:10.879Z,20.02
2019-01-15T04:50:20.091Z,20.11
2019-01-15T04:51:29.037Z,19.99
2019-01-15T04:52:38.757Z,20.02
2019-01-15T04:53:48.258Z,20.02
2019-01-15T04:54:57.724Z,20.02
2019-01-15T04:56:06.678Z,19.98
2019-01-15T04:57:15.869Z,20.03
2019-01-15T04:58:25.050Z,20.01
2019-01-15T04:59:34.743Z,19.98
2019-01-15T05:00:43.694Z,19.98
2019-01-15T05:01:52.919Z,20.05
2019-01-15T05:03:02.085Z,19.98
2019-01-15T05:04:12.037Z,20.06
2019-01-15T05:05:21.240Z,19.95
2019-01-15T05:06:30.204Z,19.98
2019-01-15T05:07:39.126Z,20.03
2019-01-15T05:08:48.354Z,19.99
2019-01-15T05:09:57.539Z,19.95
2019-01-15T05:11:07.000Z,20.01
2019-01-15T05:12:16.431Z,19.98
2019-01-15T05:13:32.040Z,20.03
2019-01-15T05:14:41.507Z,19.98
2019-01-15T05:15:51.208Z,19.98
2019-01-15T05:17:01.351Z,19.98
2019-01-15T05:18:10.531Z,20.03
2019-01-15T05:19:19.963Z,20.06
2019-01-15T05:20:28.920Z,20.02
2019-01-15T05:21:38.101Z,20.05
2019-01-15T05:22:47.303Z,20.05
2019-01-15T05:23:57.010Z,20.02
2019-01-15T05:25:06.223Z,19.99
2019-01-15T05:26:16.177Z,20.05
2019-01-15T05:27:25.605Z,19.98
2019-01-15T05:28:35.052Z,19.95
2019-01-15T05:29:44.791Z,19.91
2019-01-15T05:30:54.229Z,19.96
2019-01-15T05:32:03.401Z,19.96
2019-01-15T05:33:12.847Z,19.99
2019-01-15T05:34:22.544Z,19.99
2019-01-15T05:35:31.499Z,19.99
2019-01-15T05:36:40.926Z,19.91
2019-01-15T05:37:50.414Z,20.01
2019-01-15T05:38:59.644Z,20.06
2019-01-15T05:40:09.075Z,19.99
2019-01-15T05:41:18.533Z,20.02
2019-01-15T05:42:27.948Z,20.03
2019-01-15T05:43:40.529Z,20.02
2019-01-15T05:44:49.727Z,19.99
2019-01-15T05:45:59.169Z,19.96
2019-01-15T05:47:08.363Z,19.96
2019-01-15T05:48:17.806Z,19.99
2019-01-15T05:49:27.008Z,19.96
2019-01-15T05:50:36.712Z,19.96
2019-01-15T05:51:46.148Z,19.94
2019-01-15T05:52:55.327Z,19.98
2019-01-15T05:54:05.263Z,19.92
2019-01-15T05:55:15.185Z,20.01
2019-01-15T05:56:24.870Z,19.94
2019-01-15T05:57:34.544Z,19.98
2019-01-15T05:58:43.719Z,20.01
2019-01-15T05:59:53.386Z,19.99
2019-01-15T06:01:02.299Z,19.98
2019-01-15T06:02:11.719Z,19.99
2019-01-15T06:03:20.922Z,19.98
2019-01-15T06:04:30.390Z,19.98
2019-01-15T06:05:39.837Z,20.01
2019-01-15T06:06:49.064Z,19.94
2019-01-15T06:07:58.519Z,19.99
2019-01-15T06:09:07.451Z,20.01
2019-01-15T06:10:16.918Z,19.98
2019-01-15T06:11:26.099Z,19.99
2019-01-15T06:12:35.278Z,20.01
2019-01-15T06:13:47.413Z,20.01
2019-01-15T06:14:56.113Z,20.01
2019-01-15T06:16:05.295Z,20.02
2019-01-15T06:17:14.272Z,20.06
2019-01-15T06:18:23.197Z,20.08
2019-01-15T06:19:32.674Z,20.02
2019-01-15T06:20:41.858Z,20.05
2019-01-15T06:21:51.281Z,20.03
2019-01-15T06:23:02.431Z,20.11
2019-01-15T06:24:11.404Z,20.11
2019-01-15T06:25:20.459Z,20.16
2019-01-15T06:26:30.411Z,20.1
2019-01-15T06:27:39.838Z,20.1
2019-01-15T06:28:49.258Z,20.11
2019-01-15T06:29:58.981Z,20.1
2019-01-15T06:31:08.416Z,20.1
2019-01-15T06:32:18.352Z,20.11
2019-01-15T06:33:27.813Z,20.01
2019-01-15T06:34:37.260Z,20.06
2019-01-15T06:35:47.254Z,20.05
2019-01-15T06:36:56.957Z,20.02
2019-01-15T06:38:06.140Z,20.02
2019-01-15T06:39:15.333Z,20.02
2019-01-15T06:40:24.772Z,19.98
2019-01-15T06:41:34.467Z,19.99
2019-01-15T06:42:44.145Z,20.02
2019-01-15T06:43:54.757Z,20.02
2019-01-15T06:45:04.212Z,19.95
2019-01-15T06:46:13.656Z,19.95
2019-01-15T06:47:23.092Z,19.99
2019-01-15T06:48:32.586Z,20.02
2019-01-15T06:49:42.023Z,19.92
2019-01-15T06:50:51.941Z,19.99
2019-01-15T06:52:01.632Z,19.86
2019-01-15T06:53:11.360Z,19.88
2019-01-15T06:54:20.796Z,19.86
2019-01-15T06:55:30.237Z,19.94
2019-01-15T06:56:39.163Z,19.81
2019-01-15T06:57:48.611Z,19.8
2019-01-15T06:58:57.793Z,19.76
2019-01-15T07:00:07.462Z,19.84
2019-01-15T07:01:16.641Z,19.74
2019-01-15T07:02:26.070Z,19.77
2019-01-15T07:03:35.518Z,19.86
2019-01-15T07:04:48.612Z,19.88
2019-01-15T07:05:58.328Z,19.99
2019-01-15T07:07:08.019Z,19.99
2019-01-15T07:08:17.208Z,20.08
2019-01-15T07:09:26.659Z,20.08
2019-01-15T07:10:36.325Z,20.17
2019-01-15T07:11:45.506Z,20.2
2019-01-15T07:12:54.206Z,20.35
2019-01-15T07:14:03.141Z,20.42
2019-01-15T07:15:12.088Z,20.5
2019-01-15T07:16:21.012Z,20.51
2019-01-15T07:17:30.701Z,20.66
2019-01-15T07:18:39.868Z,20.67
2019-01-15T07:19:49.298Z,20.79
2019-01-15T07:20:59.854Z,20.85
2019-01-15T07:22:09.026Z,20.89
2019-01-15T07:23:17.967Z,20.99
2019-01-15T07:24:27.429Z,21.03
2019-01-15T07:25:37.149Z,21.06
2019-01-15T07:26:46.347Z,21.04
2019-01-15T07:27:55.057Z,21.19
2019-01-15T07:29:04.023Z,21.22
2019-01-15T07:30:13.709Z,21.25
2019-01-15T07:31:22.918Z,21.34
2019-01-15T07:32:32.093Z,21.46
2019-01-15T07:33:41.566Z,21.34
2019-01-15T07:34:50.780Z,21.46
2019-01-15T07:35:59.982Z,21.62
2019-01-15T07:37:09.428Z,21.59
2019-01-15T07:38:18.624Z,21.68
2019-01-15T07:39:28.316Z,21.65
2019-01-15T07:40:37.250Z,21.74
2019-01-15T07:41:46.445Z,21.8
2019-01-15T07:42:55.880Z,21.8
2019-01-15T07:44:09.037Z,21.77
2019-01-15T07:45:18.039Z,21.75
2019-01-15T07:46:27.711Z,21.74
2019-01-15T07:47:37.383Z,21.9
2019-01-15T07:48:47.071Z,21.9
2019-01-15T07:49:56.778Z,21.91
2019-01-15T07:51:06.728Z,21.88
2019-01-15T07:52:16.176Z,21.86
2019-01-15T07:53:26.853Z,21.9
2019-01-15T07:54:36.306Z,21.91
2019-01-15T07:55:45.535Z,21.91
2019-01-15T07:56:54.749Z,21.92
2019-01-15T07:58:04.754Z,21.9
2019-01-15T07:59:13.708Z,21.92
2019-01-15T08:00:23.152Z,21.96
2019-01-15T08:01:33.092Z,21.9
2019-01-15T08:02:42.771Z,21.98
2019-01-15T08:03:52.476Z,21.84
2019-01-15T08:05:01.699Z,21.83
2019-01-15T08:06:10.889Z,21.74
2019-01-15T08:07:20.314Z,21.75
2019-01-15T08:08:29.248Z,21.77
2019-01-15T08:09:38.948Z,21.8
2019-01-15T08:10:48.142Z,21.8
2019-01-15T08:12:04.058Z,21.74
2019-01-15T08:13:13.487Z,21.75
2019-01-15T08:14:22.684Z,21.67
2019-01-15T08:15:31.359Z,21.75
2019-01-15T08:16:40.798Z,21.65
2019-01-15T08:17:50.215Z,21.65
2019-01-15T08:18:59.153Z,21.65
2019-01-15T08:20:08.344Z,21.64
2019-01-15T08:21:17.516Z,21.67
2019-01-15T08:22:26.960Z,21.61
2019-01-15T08:23:36.654Z,21.52
2019-01-15T08:24:45.840Z,21.52
2019-01-15T08:25:55.282Z,21.56
2019-01-15T08:27:04.728Z,21.52
2019-01-15T08:28:14.200Z,21.54
2019-01-15T08:29:23.425Z,21.54
2019-01-15T08:30:32.882Z,21.46
2019-01-15T08:31:42.316Z,21.37
2019-01-15T08:32:51.507Z,21.49
2019-01-15T08:34:01.187Z,21.5
2019-01-15T08:35:10.618Z,21.34
2019-01-15T08:36:20.042Z,21.37
2019-01-15T08:37:29.468Z,21.38
2019-01-15T08:38:38.172Z,21.43
2019-01-15T08:39:47.835Z,21.35
2019-01-15T08:40:57.525Z,21.34
2019-01-15T08:42:06.951Z,21.38
2019-01-15T08:43:16.395Z,21.27
2019-01-15T08:44:25.588Z,21.22
2019-01-15T08:45:35.259Z,21.34
2019-01-15T08:46:44.174Z,21.31
2019-01-15T08:47:54.779Z,21.25
2019-01-15T08:49:03.703Z,21.27
2019-01-15T08:50:13.214Z,21.27
2019-01-15T08:51:22.922Z,21.22
2019-01-15T08:52:32.347Z,21.24
2019-01-15T08:53:41.777Z,21.14
2019-01-15T08:54:50.975Z,21.16
2019-01-15T08:56:00.196Z,21.13
2019-01-15T08:57:09.392Z,21.13
2019-01-15T08:58:18.576Z,21.13
2019-01-15T08:59:28.015Z,21.12
2019-01-15T09:00:37.501Z,21.12
2019-01-15T09:01:46.443Z,21.13
2019-01-15T09:02:56.174Z,21.14
2019-01-15T09:04:05.913Z,21.14
2019-01-15T09:05:15.459Z,21.14
2019-01-15T09:06:24.390Z,21.16
2019-01-15T09:07:33.330Z,21.22
2019-01-15T09:08:42.767Z,21.27
2019-01-15T09:09:51.961Z,21.24
2019-01-15T09:11:01.164Z,21.24
2019-01-15T09:12:10.737Z,21.27
2019-01-15T09:13:20.238Z,21.4
2019-01-15T09:14:31.940Z,21.35
2019-01-15T09:15:41.150Z,21.47
2019-01-15T09:16:50.596Z,21.4
2019-01-15T09:17:59.729Z,21.44
2019-01-15T09:19:08.683Z,21.44
2019-01-15T09:20:17.943Z,21.44
2019-01-15T09:21:27.285Z,21.59
2019-01-15T09:22:36.728Z,21.54
2019-01-15T09:23:46.614Z,21.61
2019-01-15T09:24:55.327Z,21.62
2019-01-15T09:26:04.306Z,21.61
2019-01-15T09:27:13.567Z,21.72
2019-01-15T09:28:23.247Z,21.64
2019-01-15T09:29:32.984Z,21.72
2019-01-15T09:30:42.960Z,21.71
2019-01-15T09:31:52.393Z,21.74
2019-01-15T09:33:02.351Z,21.74
2019-01-15T09:34:12.116Z,21.74
2019-01-15T09:35:21.299Z,21.71
2019-01-15T09:36:30.479Z,21.75
2019-01-15T09:37:39.919Z,21.77
2019-01-15T09:38:49.110Z,21.75
2019-01-15T09:39:58.803Z,21.71
2019-01-15T09:41:08.239Z,21.74
2019-01-15T09:42:17.936Z,21.68
2019-01-15T09:43:27.101Z,21.77
2019-01-15T09:44:38.781Z,21.75
2019-01-15T09:45:48.223Z,21.74
2019-01-15T09:46:57.401Z,21.72
2019-01-15T09:48:06.586Z,21.69
2019-01-15T09:49:15.288Z,21.62
2019-01-15T09:50:24.988Z,21.65
2019-01-15T09:51:34.270Z,21.64
2019-01-15T09:52:43.953Z,21.62
2019-01-15T09:53:53.688Z,21.62
2019-01-15T09:55:03.424Z,21.61
2019-01-15T09:56:12.616Z,21.59
2019-01-15T09:57:22.330Z,21.62
2019-01-15T09:58:31.642Z,21.54
2019-01-15T09:59:40.884Z,21.59
2019-01-15T10:00:50.333Z,21.54
2019-01-15T10:01:59.788Z,21.5
2019-01-15T10:03:09.291Z,21.59
2019-01-15T10:04:18.251Z,21.47
2019-01-15T10:05:27.935Z,21.49
2019-01-15T10:06:36.865Z,21.42
2019-01-15T10:07:46.071Z,21.46
2019-01-15T10:08:55.104Z,21.4
2019-01-15T10:10:04.114Z,21.43
2019-01-15T10:11:13.542Z,21.32
2019-01-15T10:12:22.732Z,21.47
2019-01-15T10:13:31.658Z,21.32
2019-01-15T10:14:45.893Z,21.34
2019-01-15T10:15:55.318Z,21.32
2019-01-15T10:17:05.010Z,21.31
2019-01-15T10:18:14.707Z,21.35
2019-01-15T10:19:23.646Z,21.4
2019-01-15T10:20:32.831Z,21.38
2019-01-15T10:21:42.311Z,21.29
2019-01-15T10:22:51.260Z,21.35
2019-01-15T10:24:00.186Z,21.32
2019-01-15T10:25:09.385Z,21.34
2019-01-15T10:26:18.814Z,21.32
2019-01-15T10:27:27.986Z,21.32
2019-01-15T10:28:37.448Z,21.24
2019-01-15T10:29:46.634Z,21.29
2019-01-15T10:30:56.362Z,21.24
2019-01-15T10:32:05.121Z,21.25
2019-01-15T10:33:14.104Z,21.25
2019-01-15T10:34:23.288Z,21.27
2019-01-15T10:35:32.756Z,21.21
2019-01-15T10:36:42.034Z,21.22
2019-01-15T10:37:51.490Z,21.27
2019-01-15T10:39:00.939Z,21.27
2019-01-15T10:40:10.156Z,21.25
2019-01-15T10:41:19.378Z,21.31
2019-01-15T10:42:28.067Z,21.34
2019-01-15T10:43:37.006Z,21.31
2019-01-15T10:44:53.347Z,21.38
2019-01-15T10:46:02.527Z,21.42
2019-01-15T10:47:11.972Z,21.42
2019-01-15T10:48:21.660Z,21.43
2019-01-15T10:49:30.834Z,21.49
2019-01-15T10:50:40.016Z,21.54
2019-01-15T10:51:49.440Z,21.58
2019-01-15T10:52:58.933Z,21.54
2019-01-15T10:54:08.112Z,21.61
2019-01-15T10:55:16.801Z,21.62
2019-01-15T10:56:25.740Z,21.67
2019-01-15T10:57:34.677Z,21.69
2019-01-15T10:58:43.351Z,21.68
2019-01-15T10:59:52.309Z,21.72
2019-01-15T11:01:01.246Z,21.71
2019-01-15T11:02:10.696Z,21.79
2019-01-15T11:03:20.403Z,21.82
2019-01-15T11:04:29.842Z,21.77
2019-01-15T11:05:39.022Z,21.74
2019-01-15T11:06:48.476Z,21.79
2019-01-15T11:07:57.406Z,21.8
2019-01-15T11:09:06.894Z,21.83
2019-01-15T11:10:16.070Z,21.8
2019-01-15T11:11:25.752Z,21.79
2019-01-15T11:12:35.182Z,21.75
2019-01-15T11:13:44.198Z,21.82
2019-01-15T11:15:00.846Z,21.8
2019-01-15T11:16:10.302Z,21.79
2019-01-15T11:17:19.989Z,21.79
2019-01-15T11:18:29.422Z,21.79
2019-01-15T11:19:38.863Z,21.75
2019-01-15T11:20:48.304Z,21.79
2019-01-15T11:21:57.743Z,21.74
2019-01-15T11:23:06.932Z,21.74
2019-01-15T11:24:16.877Z,21.74
2019-01-15T11:25:26.583Z,21.74
2019-01-15T11:26:36.020Z,21.68
2019-01-15T11:27:44.955Z,21.68
2019-01-15T11:28:53.918Z,21.72
2019-01-15T11:30:03.181Z,21.64
2019-01-15T11:31:11.880Z,21.67
2019-01-15T11:32:21.101Z,21.67
2019-01-15T11:33:30.051Z,21.61
2019-01-15T11:34:39.231Z,21.64
2019-01-15T11:35:48.437Z,21.58
2019-01-15T11:36:57.873Z,21.54
2019-01-15T11:38:07.069Z,21.58
2019-01-15T11:39:16.564Z,21.56
2019-01-15T11:40:26.312Z,21.54
2019-01-15T11:41:35.478Z,21.5
2019-01-15T11:42:45.157Z,21.58
2019-01-15T11:43:53.844Z,21.44
2019-01-15T11:45:07.813Z,21.43
2019-01-15T11:46:17.510Z,21.52
2019-01-15T11:47:26.454Z,21.44
2019-01-15T11:48:35.894Z,21.42
2019-01-15T11:49:44.826Z,21.4
2019-01-15T11:50:54.058Z,21.43
2019-01-15T11:52:03.490Z,21.42
2019-01-15T11:53:13.163Z,21.43
2019-01-15T11:54:22.346Z,21.46
2019-01-15T11:55:31.787Z,21.42
2019-01-15T11:56:40.749Z,21.34
2019-01-15T11:57:50.218Z,21.4
2019-01-15T11:59:00.147Z,21.4
2019-01-15T12:00:09.844Z,21.34
2019-01-15T12:01:19.283Z,21.35
2019-01-15T12:02:28.481Z,21.34
2019-01-15T12:03:37.412Z,21.32
2019-01-15T12:04:47.103Z,21.32
2019-01-15T12:05:56.543Z,21.4
2019-01-15T12:07:05.720Z,21.35
2019-01-15T12:08:15.662Z,21.34
2019-01-15T12:09:25.153Z,21.29
2019-01-15T12:10:34.345Z,21.29
2019-01-15T12:11:43.512Z,21.32
2019-01-15T12:12:52.725Z,21.28
2019-01-15T12:14:01.914Z,21.31
2019-01-15T12:15:15.588Z,21.35
2019-01-15T12:16:24.780Z,21.28
2019-01-15T12:17:33.963Z,21.35
2019-01-15T12:18:43.154Z,21.35
2019-01-15T12:19:52.104Z,21.37
2019-01-15T12:21:01.538Z,21.44
2019-01-15T12:22:11.468Z,21.42
2019-01-15T12:23:20.662Z,21.46
2019-01-15T12:24:30.599Z,21.5
2019-01-15T12:25:40.039Z,21.42
2019-01-15T12:26:49.238Z,21.58
2019-01-15T12:27:58.666Z,21.56
2019-01-15T12:29:08.887Z,21.56
2019-01-15T12:30:18.656Z,21.64
2019-01-15T12:31:28.577Z,21.69
2019-01-15T12:32:37.522Z,21.65
2019-01-15T12:33:46.961Z,21.69
2019-01-15T12:34:55.892Z,21.71
2019-01-15T12:36:05.593Z,21.71
2019-01-15T12:37:14.775Z,21.72
2019-01-15T12:38:23.696Z,21.8
2019-01-15T12:39:32.656Z,21.83
2019-01-15T12:40:42.098Z,21.79
2019-01-15T12:41:52.033Z,21.82
2019-01-15T12:43:01.742Z,21.86
2019-01-15T12:44:11.184Z,21.69
2019-01-15T12:45:23.050Z,21.8
2019-01-15T12:46:32.214Z,21.75
2019-01-15T12:47:41.651Z,21.77
2019-01-15T12:48:50.596Z,21.74
2019-01-15T12:49:59.571Z,21.84
2019-01-15T12:51:09.046Z,21.83
2019-01-15T12:52:18.487Z,21.88
2019-01-15T12:53:27.674Z,21.8
2019-01-15T12:54:37.118Z,21.79
2019-01-15T12:55:46.605Z,21.8
2019-01-15T12:56:56.031Z,21.83
2019-01-15T12:58:05.612Z,21.74
2019-01-15T12:59:14.546Z,21.74
2019-01-15T13:00:24.006Z,21.72
2019-01-15T13:01:33.441Z,21.74
2019-01-15T13:02:42.668Z,21.77
2019-01-15T13:03:52.338Z,21.75
2019-01-15T13:05:02.064Z,21.74
2019-01-15T13:06:11.761Z,21.77
2019-01-15T13:07:21.194Z,21.68
2019-01-15T13:08:30.116Z,21.64
2019-01-15T13:09:39.791Z,21.67
2019-01-15T13:10:49.232Z,21.65
2019-01-15T13:11:58.675Z,21.64
2019-01-15T13:13:08.612Z,21.62
2019-01-15T13:14:17.792Z,21.61
2019-01-15T13:15:37.247Z,21.59
2019-01-15T13:16:46.163Z,21.59
2019-01-15T13:17:55.820Z,21.54
2019-01-15T13:19:05.025Z,21.54
2019-01-15T13:20:14.963Z,21.56
2019-01-15T13:21:23.930Z,21.54
2019-01-15T13:22:33.130Z,21.56
2019-01-15T13:23:42.799Z,21.62
2019-01-15T13:24:52.242Z,21.53
2019-01-15T13:26:00.935Z,21.53
2019-01-15T13:27:10.679Z,21.52
2019-01-15T13:28:19.864Z,21.49
2019-01-15T13:29:28.796Z,21.43
2019-01-15T13:30:37.980Z,21.49
2019-01-15T13:31:47.454Z,21.42
2019-01-15T13:32:56.720Z,21.38
2019-01-15T13:34:05.928Z,21.4
2019-01-15T13:35:15.607Z,21.43
2019-01-15T13:36:25.067Z,21.42
2019-01-15T13:37:34.772Z,21.4
2019-01-15T13:38:43.704Z,21.42
2019-01-15T13:39:53.143Z,21.37
2019-01-15T13:41:02.570Z,21.43
2019-01-15T13:42:12.517Z,21.46
2019-01-15T13:43:21.457Z,21.34
2019-01-15T13:44:31.557Z,21.44
2019-01-15T13:45:46.633Z,21.4
2019-01-15T13:46:56.063Z,21.34
2019-01-15T13:48:05.743Z,21.28
2019-01-15T13:49:14.701Z,21.4
2019-01-15T13:50:24.390Z,21.37
2019-01-15T13:51:33.587Z,21.43
2019-01-15T13:52:42.816Z,21.35
2019-01-15T13:53:52.515Z,21.37
2019-01-15T13:55:01.453Z,21.37
2019-01-15T13:56:10.903Z,21.43
2019-01-15T13:57:20.346Z,21.49
2019-01-15T13:58:29.561Z,21.38
2019-01-15T13:59:39.018Z,21.49
2019-01-15T14:00:49.466Z,21.47
2019-01-15T14:01:58.411Z,21.44
2019-01-15T14:03:07.842Z,21.52
2019-01-15T14:04:17.547Z,21.53
2019-01-15T14:05:26.537Z,21.56
2019-01-15T14:06:35.977Z,21.53
2019-01-15T14:07:45.701Z,21.54
2019-01-15T14:08:55.136Z,21.54
2019-01-15T14:10:04.062Z,21.53
2019-01-15T14:11:13.498Z,21.53
2019-01-15T14:12:22.709Z,21.65
2019-01-15T14:13:32.399Z,21.56
2019-01-15T14:14:41.332Z,21.61
2019-01-15T14:15:53.872Z,21.54
2019-01-15T14:17:03.319Z,21.62
2019-01-15T14:18:12.757Z,21.68
2019-01-15T14:19:22.191Z,21.53
2019-01-15T14:20:31.146Z,21.49
2019-01-15T14:21:40.862Z,21.54
2019-01-15T14:22:50.338Z,21.53
2019-01-15T14:23:59.520Z,21.53
2019-01-15T14:25:08.466Z,21.52
2019-01-15T14:26:17.670Z,21.58
2019-01-15T14:27:26.867Z,21.56
2019-01-15T14:28:36.063Z,21.54
2019-01-15T14:29:45.493Z,21.54
2019-01-15T14:30:54.679Z,21.58
2019-01-15T14:32:03.612Z,21.54
2019-01-15T14:33:13.320Z,21.52
2019-01-15T14:34:22.044Z,21.52
2019-01-15T14:35:31.721Z,21.58
2019-01-15T14:36:41.178Z,21.62
2019-01-15T14:37:50.614Z,21.46
2019-01-15T14:39:00.056Z,21.53
2019-01-15T14:40:09.719Z,21.53
2019-01-15T14:41:19.146Z,21.5
2019-01-15T14:42:28.064Z,21.49
2019-01-15T14:43:37.274Z,21.54
2019-01-15T14:44:46.220Z,21.5
2019-01-15T14:46:02.875Z,21.47
2019-01-15T14:47:12.120Z,21.43
2019-01-15T14:48:21.629Z,21.47
2019-01-15T14:49:31.377Z,21.47
2019-01-15T14:50:40.834Z,21.53
2019-01-15T14:51:50.735Z,21.47
2019-01-15T14:53:00.444Z,21.47
2019-01-15T14:54:09.634Z,21.47
2019-01-15T14:55:19.613Z,21.52
2019-01-15T14:56:29.574Z,21.49
2019-01-15T14:57:39.526Z,21.5